createdAt,value
2022-10-16T00:01:31.847Z,10.52
2022-10-16T00:04:00.610Z,11.65
2022-10-16T00:06:32.865Z,11.15
2022-10-16T00:09:00.459Z,11.27
2022-10-16T00:11:38.069Z,12.13
2022-10-16T00:14:12.442Z,11.32
2022-10-16T00:16:39.954Z,12.48
2022-10-16T00:19:07.939Z,12.10
2022-10-16T00:21:35.326Z,11.93
2022-10-16T00:24:06.624Z,12.13
2022-10-16T00:26:35.400Z,12.55
2022-10-16T00:29:03.578Z,11.63
2022-10-16T00:31:30.742Z,12.65
2022-10-16T00:33:58.022Z,12.70
2022-10-16T00:36:26.732Z,12.25
2022-10-16T00:38:55.824Z,12.55
2022-10-16T00:41:25.195Z,13.07
2022-10-16T00:43:55.095Z,12.82
2022-10-16T00:46:22.036Z,13.82
2022-10-16T00:49:07.000Z,14.13
2022-10-16T00:51:39.880Z,13.63
2022-10-16T00:54:18.444Z,13.00
2022-10-16T00:56:46.998Z,13.65
2022-10-16T00:59:26.358Z,12.95
2022-10-16T01:01:54.528Z,13.63
2022-10-16T01:04:22.311Z,13.65
2022-10-16T01:07:07.442Z,13.75
2022-10-16T01:10:02.936Z,13.80
2022-10-16T01:13:07.595Z,13.57
2022-10-16T01:15:48.535Z,13.30
2022-10-16T01:18:38.617Z,13.40
2022-10-16T01:21:09.537Z,13.18
2022-10-16T01:23:48.612Z,14.05
2022-10-16T01:26:24.280Z,12.85
2022-10-16T01:28:56.160Z,14.32
2022-10-16T01:31:31.645Z,13.65
2022-10-16T01:34:14.637Z,13.80
2022-10-16T01:36:52.844Z,13.77
2022-10-16T01:39:24.022Z,13.45
2022-10-16T01:41:59.993Z,13.77
2022-10-16T01:44:31.935Z,14.13
2022-10-16T01:47:22.890Z,14.05
2022-10-16T01:49:51.729Z,14.07
2022-10-16T01:52:24.034Z,14.00
2022-10-16T01:54:54.983Z,13.82
2022-10-16T01:57:26.631Z,14.88
2022-10-16T02:00:00.073Z,14.75
2022-10-16T02:02:29.580Z,14.43
2022-10-16T02:05:04.296Z,14.30
2022-10-16T02:07:31.295Z,14.55
2022-10-16T02:09:58.388Z,14.45
2022-10-16T02:12:29.236Z,15.68
2022-10-16T02:14:56.993Z,14.50
2022-10-16T02:17:24.696Z,15.00
2022-10-16T02:19:55.874Z,14.90
2022-10-16T02:22:34.801Z,15.48
2022-10-16T02:25:14.364Z,15.40
2022-10-16T02:27:46.387Z,14.50
2022-10-16T02:30:42.026Z,14.82
2022-10-16T02:33:14.629Z,15.60
2022-10-16T02:35:42.802Z,16.33
2022-10-16T02:40:43.721Z,14.88
2022-10-16T02:43:11.668Z,15.20
2022-10-16T02:45:39.236Z,14.65
2022-10-16T02:48:06.618Z,15.05
2022-10-16T02:50:34.240Z,16.15
2022-10-16T02:53:01.819Z,16.27
2022-10-16T02:55:29.185Z,15.52
2022-10-16T02:57:56.481Z,17.15
2022-10-16T03:00:23.563Z,15.45
2022-10-16T03:02:51.406Z,17.25
2022-10-16T03:05:18.628Z,15.07
2022-10-16T03:07:45.542Z,16.17
2022-10-16T03:10:12.776Z,16.08
2022-10-16T03:12:39.798Z,15.40
2022-10-16T03:15:08.340Z,17.65
2022-10-16T03:17:35.758Z,16.83
2022-10-16T03:20:03.737Z,15.05
2022-10-16T03:22:30.776Z,16.45
2022-10-16T03:24:57.965Z,16.52
2022-10-16T03:27:25.260Z,16.17
2022-10-16T03:29:52.519Z,15.60
2022-10-16T03:32:21.078Z,15.55
2022-10-16T03:34:48.286Z,15.43
2022-10-16T03:37:15.164Z,16.02
2022-10-16T03:39:42.411Z,15.18
2022-10-16T03:42:09.385Z,13.88
2022-10-16T03:44:36.552Z,14.60
2022-10-16T03:47:03.477Z,15.32
2022-10-16T03:49:30.866Z,15.10
2022-10-16T03:51:57.911Z,14.38
2022-10-16T03:54:25.179Z,14.85
2022-10-16T03:56:52.025Z,14.07
2022-10-16T03:59:19.177Z,14.77
2022-10-16T04:01:46.148Z,14.30
2022-10-16T04:04:13.519Z,13.68
2022-10-16T04:06:41.946Z,13.90
2022-10-16T04:09:09.274Z,13.85
2022-10-16T04:11:36.456Z,13.88
2022-10-16T04:14:04.035Z,14.40
2022-10-16T04:16:30.972Z,15.73
2022-10-16T04:18:58.280Z,14.23
2022-10-16T04:21:25.516Z,14.57
2022-10-16T04:23:52.954Z,13.57
2022-10-16T04:26:19.860Z,14.02
2022-10-16T04:28:47.195Z,14.05
2022-10-16T04:31:14.154Z,13.98
2022-10-16T04:33:44.367Z,14.63
2022-10-16T04:36:11.830Z,13.88
2022-10-16T04:38:40.501Z,15.57
2022-10-16T04:41:09.079Z,13.40
2022-10-16T04:43:36.625Z,14.02
2022-10-16T04:46:05.720Z,13.65
2022-10-16T04:48:33.602Z,14.35
2022-10-16T04:51:00.941Z,13.95
2022-10-16T04:53:28.223Z,13.18
2022-10-16T04:55:55.581Z,13.63
2022-10-16T04:58:24.645Z,14.13
2022-10-16T05:00:51.824Z,13.95
2022-10-16T05:03:18.983Z,14.10
2022-10-16T05:05:46.677Z,13.63
2022-10-16T05:08:15.127Z,13.55
2022-10-16T05:10:43.396Z,14.32
2022-10-16T05:13:11.000Z,14.35
2022-10-16T05:15:37.957Z,14.00
2022-10-16T05:18:05.099Z,13.45
2022-10-16T05:20:32.014Z,13.85
2022-10-16T05:22:59.254Z,13.70
2022-10-16T05:25:26.521Z,14.30
2022-10-16T05:27:53.694Z,14.30
2022-10-16T05:30:21.273Z,13.60
2022-10-16T05:32:51.928Z,13.85
2022-10-16T05:35:19.941Z,14.00
2022-10-16T05:37:47.891Z,14.55
2022-10-16T05:40:15.481Z,14.13
2022-10-16T05:42:42.526Z,12.82
2022-10-16T05:45:11.812Z,14.75
2022-10-16T05:47:39.110Z,13.23
2022-10-16T05:50:06.953Z,15.95
2022-10-16T05:52:34.196Z,14.05
2022-10-16T05:55:01.141Z,14.48
2022-10-16T05:57:28.974Z,14.68
2022-10-16T05:59:56.058Z,13.77
2022-10-16T06:02:23.247Z,13.35
2022-10-16T06:04:50.125Z,13.40
2022-10-16T06:07:17.289Z,14.60
2022-10-16T06:09:44.477Z,13.48
2022-10-16T06:12:11.589Z,14.68
2022-10-16T06:14:38.694Z,13.77
2022-10-16T06:17:05.804Z,12.82
2022-10-16T06:19:32.757Z,13.13
2022-10-16T06:22:00.289Z,15.20
2022-10-16T06:24:27.492Z,13.15
2022-10-16T06:26:54.545Z,13.30
2022-10-16T06:29:21.492Z,13.32
2022-10-16T06:31:48.925Z,13.27
2022-10-16T06:34:15.877Z,14.77
2022-10-16T06:36:44.540Z,13.13
2022-10-16T06:39:11.496Z,13.07
2022-10-16T06:41:39.241Z,13.93
2022-10-16T06:44:16.240Z,13.60
2022-10-16T06:46:43.594Z,13.43
2022-10-16T06:49:10.676Z,13.32
2022-10-16T06:51:43.223Z,13.93
2022-10-16T06:54:10.935Z,14.00
2022-10-16T06:56:38.695Z,13.27
2022-10-16T06:59:05.801Z,13.18
2022-10-16T07:01:50.900Z,12.90
2022-10-16T07:04:18.122Z,13.13
2022-10-16T07:06:45.272Z,13.05
2022-10-16T07:09:12.976Z,13.40
2022-10-16T07:11:41.663Z,14.07
2022-10-16T07:14:18.582Z,12.48
2022-10-16T07:16:46.571Z,12.95
2022-10-16T07:19:16.034Z,13.23
2022-10-16T07:21:43.334Z,12.75
2022-10-16T07:24:16.376Z,12.75
2022-10-16T07:26:45.934Z,12.25
2022-10-16T07:29:19.398Z,13.88
2022-10-16T07:31:46.940Z,12.60
2022-10-16T07:34:16.141Z,12.98
2022-10-16T07:36:43.544Z,13.52
2022-10-16T07:39:11.019Z,13.10
2022-10-16T07:41:38.196Z,12.20
2022-10-16T07:44:06.356Z,12.82
2022-10-16T07:46:35.084Z,13.30
2022-10-16T07:49:02.292Z,12.70
2022-10-16T07:51:29.856Z,12.02
2022-10-16T07:53:57.124Z,11.70
2022-10-16T07:56:24.574Z,12.40
2022-10-16T07:58:52.828Z,12.88
2022-10-16T08:01:20.403Z,11.68
2022-10-16T08:03:52.502Z,12.43
2022-10-16T08:06:25.194Z,11.52
2022-10-16T08:08:56.872Z,11.18
2022-10-16T08:11:24.529Z,12.05
2022-10-16T08:13:52.577Z,11.88
2022-10-16T08:16:20.248Z,11.85
2022-10-16T08:18:47.542Z,11.82
2022-10-16T08:21:21.370Z,11.15
2022-10-16T08:23:54.492Z,11.68
2022-10-16T08:26:26.109Z,11.73
2022-10-16T08:28:53.559Z,12.68
2022-10-16T08:31:21.112Z,11.85
2022-10-16T08:33:49.049Z,10.90
2022-10-16T08:36:17.306Z,11.52
2022-10-16T08:38:44.603Z,11.90
2022-10-16T08:41:14.482Z,11.07
2022-10-16T08:44:07.820Z,11.48
2022-10-16T08:46:40.610Z,11.18
2022-10-16T08:49:14.080Z,10.43
2022-10-16T08:51:44.215Z,11.07
2022-10-16T08:54:37.984Z,10.70
2022-10-16T08:57:18.469Z,10.65
2022-10-16T08:59:47.290Z,11.35
2022-10-16T09:02:31.004Z,10.55
2022-10-16T09:05:20.150Z,10.63
2022-10-16T09:08:25.524Z,10.32
2022-10-16T09:10:55.560Z,10.43
2022-10-16T09:13:31.046Z,10.80
2022-10-16T09:16:50.837Z,10.90
2022-10-16T09:19:43.014Z,10.20
2022-10-16T09:22:17.660Z,9.45
2022-10-16T09:24:44.960Z,10.88
2022-10-16T09:27:15.950Z,10.35
2022-10-16T09:29:43.003Z,10.15
2022-10-16T09:32:16.370Z,9.80
2022-10-16T09:34:57.370Z,10.20
2022-10-16T09:37:27.270Z,9.63
2022-10-16T09:39:55.825Z,10.25
2022-10-16T09:42:29.402Z,10.18
2022-10-16T09:44:58.547Z,10.45
2022-10-16T09:47:29.026Z,10.23
2022-10-16T09:50:03.226Z,10.43
2022-10-16T09:52:31.320Z,9.75
2022-10-16T09:55:13.480Z,10.20
2022-10-16T09:57:54.108Z,10.20
2022-10-16T10:00:23.112Z,9.70
2022-10-16T10:02:51.068Z,10.68
2022-10-16T10:05:22.916Z,10.20
2022-10-16T10:08:00.237Z,9.32
2022-10-16T10:10:33.030Z,10.75
2022-10-16T10:13:00.881Z,8.90
2022-10-16T10:15:35.115Z,9.90
2022-10-16T10:18:04.341Z,9.30
2022-10-16T10:20:36.506Z,9.75
2022-10-16T10:23:22.982Z,9.27
2022-10-16T10:26:06.953Z,9.50
2022-10-16T10:28:49.430Z,9.05
2022-10-16T10:31:32.988Z,9.23
2022-10-16T10:34:18.573Z,9.10
2022-10-16T10:36:53.903Z,8.88
2022-10-16T10:39:27.721Z,9.00
2022-10-16T10:42:03.486Z,8.63
2022-10-16T10:44:57.272Z,9.00
2022-10-16T10:48:01.364Z,8.80
2022-10-16T10:50:50.613Z,8.77
2022-10-16T10:53:39.418Z,8.90
2022-10-16T10:56:32.034Z,8.80
2022-10-16T10:59:01.854Z,9.02
2022-10-16T11:01:54.115Z,9.07
2022-10-16T11:04:21.030Z,9.18
2022-10-16T11:06:53.537Z,8.75
2022-10-16T11:09:37.698Z,9.00
2022-10-16T11:12:08.172Z,9.38
2022-10-16T11:14:35.187Z,9.40
2022-10-16T11:17:20.371Z,9.07
2022-10-16T11:20:20.665Z,7.65
2022-10-16T11:22:57.565Z,8.35
2022-10-16T11:25:33.440Z,8.10
2022-10-16T11:28:12.750Z,8.98
2022-10-16T11:30:42.616Z,8.32
2022-10-16T11:33:19.499Z,8.98
2022-10-16T11:36:15.407Z,8.45
2022-10-16T11:39:07.281Z,9.18
2022-10-16T11:44:39.698Z,8.93
2022-10-16T11:47:59.216Z,8.70
2022-10-16T11:50:35.620Z,8.82
2022-10-16T11:53:36.508Z,8.13
2022-10-16T11:56:05.568Z,7.93
2022-10-16T11:58:46.014Z,8.02
2022-10-16T12:01:21.184Z,8.82
2022-10-16T12:04:28.624Z,8.35
2022-10-16T12:07:07.316Z,9.35
2022-10-16T12:09:39.494Z,8.85
2022-10-16T12:12:29.168Z,8.65
2022-10-16T12:15:26.037Z,9.02
2022-10-16T12:18:02.208Z,8.57
2022-10-16T12:20:36.172Z,8.43
2022-10-16T12:23:06.415Z,8.90
2022-10-16T12:25:40.946Z,8.25
2022-10-16T12:28:21.437Z,9.10
2022-10-16T12:31:10.976Z,9.00
2022-10-16T12:33:42.829Z,8.57
2022-10-16T12:36:38.014Z,8.63
2022-10-16T12:39:05.558Z,8.75
2022-10-16T12:41:40.828Z,8.77
2022-10-16T12:44:27.382Z,8.05
2022-10-16T12:46:54.362Z,8.30
2022-10-16T12:49:38.004Z,8.20
2022-10-16T12:52:05.747Z,8.35
2022-10-16T12:54:38.612Z,9.68
2022-10-16T12:57:28.617Z,9.20
2022-10-16T13:00:21.175Z,9.43
2022-10-16T13:02:58.287Z,8.65
2022-10-16T13:05:40.793Z,7.97
2022-10-16T13:08:10.630Z,8.20
2022-10-16T13:11:19.122Z,7.78
2022-10-16T13:13:59.727Z,7.22
2022-10-16T13:17:24.036Z,7.47
2022-10-16T13:20:13.693Z,7.82
2022-10-16T13:22:53.864Z,7.90
2022-10-16T13:25:31.061Z,7.53
2022-10-16T13:28:02.402Z,7.30
2022-10-16T13:30:31.936Z,7.65
2022-10-16T13:33:05.264Z,7.95
2022-10-16T13:35:34.596Z,7.40
2022-10-16T13:38:17.088Z,8.63
2022-10-16T13:40:55.958Z,7.70
2022-10-16T13:43:28.837Z,7.88
2022-10-16T13:46:08.141Z,8.10
2022-10-16T13:48:35.747Z,8.43
2022-10-16T13:51:19.639Z,8.25
2022-10-16T13:53:47.547Z,8.07
2022-10-16T13:56:20.748Z,7.90
2022-10-16T13:58:58.673Z,8.70
2022-10-16T14:01:35.473Z,8.30
2022-10-16T14:04:08.888Z,8.13
2022-10-16T14:06:40.913Z,7.93
2022-10-16T14:09:15.219Z,8.68
2022-10-16T14:12:11.425Z,6.88
2022-10-16T14:14:43.053Z,8.20
2022-10-16T14:17:19.656Z,9.02
2022-10-16T14:19:56.946Z,7.15
2022-10-16T14:22:41.478Z,8.15
2022-10-16T14:25:21.181Z,8.23
2022-10-16T14:28:05.952Z,7.57
2022-10-16T14:30:36.086Z,7.35
2022-10-16T14:33:05.729Z,8.45
2022-10-16T14:35:39.549Z,7.93
2022-10-16T14:38:18.316Z,8.00
2022-10-16T14:40:49.773Z,8.35
2022-10-16T14:43:23.348Z,7.72
2022-10-16T14:45:57.016Z,8.77
2022-10-16T14:48:25.321Z,8.90
2022-10-16T14:50:52.633Z,8.23
2022-10-16T14:53:19.805Z,8.40
2022-10-16T14:55:47.214Z,8.38
2022-10-16T14:58:22.816Z,9.38
2022-10-16T15:00:50.526Z,8.98
2022-10-16T15:03:17.750Z,8.20
2022-10-16T15:05:45.247Z,8.23
2022-10-16T15:08:13.379Z,8.23
2022-10-16T15:10:45.089Z,8.75
2022-10-16T15:13:15.521Z,8.93
2022-10-16T15:15:47.355Z,8.73
2022-10-16T15:18:16.211Z,8.93
2022-10-16T15:20:44.424Z,8.68
2022-10-16T15:23:16.828Z,9.02
2022-10-16T15:25:45.366Z,8.75
2022-10-16T15:28:14.280Z,8.63
2022-10-16T15:30:42.831Z,8.60
2022-10-16T15:33:19.350Z,8.57
2022-10-16T15:35:50.815Z,8.77
2022-10-16T15:38:19.426Z,9.20
2022-10-16T15:40:47.388Z,8.75
2022-10-16T15:43:14.421Z,9.07
2022-10-16T15:45:42.127Z,9.77
2022-10-16T15:48:14.674Z,9.10
2022-10-16T15:50:41.945Z,8.98
2022-10-16T15:53:09.191Z,8.45
2022-10-16T15:55:38.885Z,9.25
2022-10-16T15:58:06.600Z,8.38
2022-10-16T16:00:34.265Z,9.57
2022-10-16T16:03:01.414Z,10.35
2022-10-16T16:05:28.730Z,9.52
2022-10-16T16:07:55.710Z,10.27
2022-10-16T16:10:22.908Z,9.43
2022-10-16T16:12:53.092Z,10.18
2022-10-16T16:15:22.345Z,9.13
2022-10-16T16:17:50.328Z,9.57
2022-10-16T16:20:17.850Z,10.13
2022-10-16T16:22:44.932Z,9.23
2022-10-16T16:25:12.381Z,10.18
2022-10-16T16:27:39.654Z,10.55
2022-10-16T16:30:08.366Z,9.93
2022-10-16T16:32:36.219Z,9.88
2022-10-16T16:35:04.924Z,10.02
2022-10-16T16:37:32.419Z,9.15
2022-10-16T16:39:59.712Z,9.93
2022-10-16T16:42:28.274Z,10.30
2022-10-16T16:44:55.693Z,11.02
2022-10-16T16:47:23.023Z,10.77
2022-10-16T16:49:50.474Z,10.98
2022-10-16T16:52:17.720Z,11.50
2022-10-16T16:54:52.217Z,10.60
2022-10-16T16:57:21.116Z,11.30
2022-10-16T16:59:52.028Z,11.10
2022-10-16T17:02:19.089Z,11.93
2022-10-16T17:04:46.408Z,10.65
2022-10-16T17:07:13.352Z,12.13
2022-10-16T17:09:40.745Z,11.63
2022-10-16T17:12:07.916Z,11.00
2022-10-16T17:14:35.005Z,11.48
2022-10-16T17:17:02.019Z,11.60
2022-10-16T17:19:29.152Z,12.30
2022-10-16T17:21:56.159Z,12.65
2022-10-16T17:24:23.490Z,11.80
2022-10-16T17:26:50.579Z,11.55
2022-10-16T17:29:18.875Z,13.00
2022-10-16T17:31:46.500Z,12.80
2022-10-16T17:34:14.193Z,13.07
2022-10-16T17:36:44.448Z,11.75
2022-10-16T17:39:14.172Z,12.52
2022-10-16T17:41:41.135Z,12.57
2022-10-16T17:44:08.655Z,12.77
2022-10-16T17:46:40.101Z,13.07
2022-10-16T17:49:09.909Z,14.18
2022-10-16T17:51:37.130Z,13.10
2022-10-16T17:54:04.704Z,12.95
2022-10-16T17:56:32.156Z,13.40
2022-10-16T17:59:01.726Z,13.68
2022-10-16T18:01:35.405Z,12.77
2022-10-16T18:04:07.371Z,13.07
2022-10-16T18:06:34.877Z,13.88
2022-10-16T18:09:04.306Z,13.23
2022-10-16T18:11:32.260Z,14.45
2022-10-16T18:13:59.817Z,13.93
2022-10-16T18:16:29.221Z,14.23
2022-10-16T18:18:57.365Z,14.15
2022-10-16T18:21:27.500Z,13.80
2022-10-16T18:23:55.470Z,14.82
2022-10-16T18:26:23.482Z,14.13
2022-10-16T18:28:55.966Z,13.98
2022-10-16T18:31:23.994Z,14.25
2022-10-16T18:33:51.605Z,14.05
2022-10-16T18:36:21.847Z,13.52
2022-10-16T18:38:50.507Z,14.23
2022-10-16T18:41:17.973Z,15.35
2022-10-16T18:43:45.235Z,14.57
2022-10-16T18:46:15.632Z,15.50
2022-10-16T18:48:44.203Z,15.13
2022-10-16T18:51:16.981Z,15.60
2022-10-16T18:53:46.016Z,14.60
2022-10-16T18:56:16.895Z,15.60
2022-10-16T18:58:48.356Z,16.35
2022-10-16T19:01:20.990Z,16.40
2022-10-16T19:03:53.508Z,15.60
2022-10-16T19:06:20.711Z,15.77
2022-10-16T19:08:48.150Z,14.50
2022-10-16T19:11:17.825Z,15.57
2022-10-16T19:13:46.551Z,15.80
2022-10-16T19:16:22.974Z,15.85
2022-10-16T19:18:52.054Z,15.88
2022-10-16T19:21:19.227Z,15.73
2022-10-16T19:23:47.156Z,16.20
2022-10-16T19:26:17.016Z,15.95
2022-10-16T19:28:44.936Z,15.77
2022-10-16T19:31:18.569Z,15.82
2022-10-16T19:33:46.318Z,15.93
2022-10-16T19:36:19.079Z,16.70
2022-10-16T19:38:47.131Z,16.35
2022-10-16T19:41:18.516Z,16.90
2022-10-16T19:46:19.363Z,15.77
2022-10-16T19:48:48.456Z,16.65
2022-10-16T19:51:18.397Z,16.00
2022-10-16T19:53:47.189Z,17.65
2022-10-16T19:56:17.177Z,15.30
2022-10-16T19:58:45.843Z,17.77
2022-10-16T20:01:14.625Z,15.45
2022-10-16T20:03:46.447Z,15.65
2022-10-16T20:08:42.510Z,16.42
2022-10-16T20:11:15.103Z,15.43
2022-10-16T20:13:42.605Z,15.70
2022-10-16T20:16:10.775Z,15.65
2022-10-16T20:18:38.442Z,17.40
2022-10-16T20:21:10.634Z,15.48
2022-10-16T20:23:37.977Z,17.05
2022-10-16T20:26:05.145Z,16.70
2022-10-16T20:28:32.442Z,17.75
2022-10-16T20:30:59.477Z,17.67
2022-10-16T20:33:26.631Z,16.02
2022-10-16T20:35:53.677Z,15.23
2022-10-16T20:38:20.736Z,16.63
2022-10-16T20:40:48.647Z,15.55
2022-10-16T20:43:17.975Z,14.75
2022-10-16T20:45:45.966Z,15.30
2022-10-16T20:48:14.035Z,15.05
2022-10-16T20:50:42.109Z,14.73
2022-10-16T20:53:09.499Z,15.05
2022-10-16T20:55:37.953Z,15.02
2022-10-16T20:58:05.830Z,15.15
2022-10-16T21:00:33.017Z,15.23
2022-10-16T21:03:00.202Z,15.45
2022-10-16T21:05:29.964Z,15.70
2022-10-16T21:08:00.728Z,15.13
2022-10-16T21:10:29.561Z,15.02
2022-10-16T21:12:56.676Z,15.63
2022-10-16T21:15:23.856Z,15.25
2022-10-16T21:17:51.028Z,14.32
2022-10-16T21:20:18.233Z,16.60
2022-10-16T21:22:45.391Z,14.77
2022-10-16T21:25:12.312Z,14.90
2022-10-16T21:27:40.669Z,15.95
2022-10-16T21:30:09.499Z,15.88
2022-10-16T21:32:38.043Z,15.60
2022-10-16T21:35:06.306Z,15.27
2022-10-16T21:37:33.865Z,16.48
2022-10-16T21:40:01.106Z,15.13
2022-10-16T21:42:28.760Z,15.13
2022-10-16T21:44:55.810Z,15.73
2022-10-16T21:47:23.183Z,15.52
2022-10-16T21:49:50.146Z,15.77
2022-10-16T21:52:17.363Z,16.02
2022-10-16T21:54:44.313Z,15.38
2022-10-16T21:57:11.444Z,16.35
2022-10-16T21:59:38.540Z,15.95
2022-10-16T22:02:06.381Z,16.05
2022-10-16T22:04:33.714Z,15.57
2022-10-16T22:07:00.827Z,16.55
2022-10-16T22:09:27.851Z,15.43
2022-10-16T22:11:55.049Z,15.80
2022-10-16T22:14:22.173Z,16.48
2022-10-16T22:16:50.252Z,16.05
2022-10-16T22:19:19.686Z,16.60
2022-10-16T22:21:48.075Z,15.80
2022-10-16T22:24:16.530Z,16.13
2022-10-16T22:26:45.007Z,15.35
2022-10-16T22:29:14.427Z,17.23
2022-10-16T22:31:42.580Z,15.18
2022-10-16T22:34:13.338Z,15.57
2022-10-16T22:36:40.935Z,16.65
2022-10-16T22:39:07.822Z,15.70
2022-10-16T22:41:34.976Z,16.83
2022-10-16T22:44:01.942Z,16.02
2022-10-16T22:46:30.840Z,17.00
2022-10-16T22:48:58.709Z,15.85
2022-10-16T22:51:27.155Z,17.10
2022-10-16T22:53:54.387Z,16.20
2022-10-16T22:56:22.346Z,16.95
2022-10-16T22:58:50.212Z,16.52
2022-10-16T23:01:20.249Z,17.20
2022-10-16T23:03:47.310Z,17.35
2022-10-16T23:06:14.593Z,16.70
2022-10-16T23:08:41.618Z,16.70
2022-10-16T23:11:12.303Z,17.02
2022-10-16T23:13:45.218Z,16.60
2022-10-16T23:16:15.484Z,16.48
2022-10-16T23:18:43.775Z,16.42
2022-10-16T23:21:13.694Z,16.52
2022-10-16T23:23:41.725Z,17.75
2022-10-16T23:26:14.786Z,17.48
2022-10-16T23:28:42.438Z,18.00
2022-10-16T23:31:11.203Z,17.42
2022-10-16T23:33:39.511Z,17.80
2022-10-16T23:36:09.630Z,18.20
2022-10-16T23:38:36.745Z,17.65
2022-10-16T23:41:04.784Z,17.67
2022-10-16T23:43:31.956Z,16.92
2022-10-16T23:45:59.231Z,17.10
2022-10-16T23:48:26.508Z,17.35
2022-10-16T23:50:53.668Z,17.33
2022-10-16T23:53:20.887Z,18.85
2022-10-16T23:55:48.145Z,17.90
2022-10-16T23:58:15.821Z,17.52
